Time;durP1;ratioP1;P1;durP2;ratioP2;P2;SDS_P1;SDS_P2;PMS_P1;PMS_P2;Temp;Humidity;BMP_temperature;BMP_pressure;BME280_temperature;BME280_humidity;BME280_pressure;Samples;Min_cycle;Max_cycle;Signal;HPM_P1;HPM_P2
2021/10/23 00:01:32;;;;;;;13.03;5.80;;;9.50;99.90;;;;;;5066180;28;20063;-82
2021/10/23 00:03:58;;;;;;;13.70;6.23;;;9.40;99.90;;;;;;5067327;28;20039;-82
2021/10/23 00:06:23;;;;;;;12.77;6.03;;;9.50;99.90;;;;;;5066097;28;20036;-82
2021/10/23 00:08:49;;;;;;;14.13;5.90;;;9.40;99.90;;;;;;5067705;28;20036;-82
2021/10/23 00:11:14;;;;;;;12.60;6.17;;;9.50;99.90;;;;;;5065896;28;20029;-82
2021/10/23 00:13:40;;;;;;;11.37;6.30;;;9.40;99.90;;;;;;5066332;28;20032;-82
2021/10/23 00:16:07;;;;;;;14.20;6.53;;;9.40;99.90;;;;;;5066451;28;20029;-82
2021/10/23 00:18:32;;;;;;;10.63;6.13;;;9.40;99.90;;;;;;5068178;28;20103;-82
2021/10/23 00:20:58;;;;;;;12.90;6.70;;;9.40;99.90;;;;;;5060252;28;20122;-82
2021/10/23 00:23:24;;;;;;;13.00;6.07;;;9.40;99.90;;;;;;5055705;28;20494;-82
2021/10/23 00:25:49;;;;;;;16.00;6.60;;;9.40;99.90;;;;;;5054572;28;20036;-82
2021/10/23 00:28:15;;;;;;;11.43;6.07;;;9.40;99.90;;;;;;5055927;28;20161;-82
2021/10/23 00:30:41;;;;;;;12.43;6.17;;;9.40;99.90;;;;;;5055650;28;20025;-82
2021/10/23 00:33:06;;;;;;;12.37;6.43;;;9.40;99.90;;;;;;5056975;28;20474;-82
2021/10/23 00:35:32;;;;;;;11.17;5.47;;;9.40;99.90;;;;;;5054950;28;20021;-82
2021/10/23 00:38:00;;;;;;;13.07;6.53;;;9.40;99.90;;;;;;5055229;28;20090;-82
2021/10/23 00:40:26;;;;;;;12.10;6.47;;;9.30;99.90;;;;;;5053857;28;20025;-82
2021/10/23 00:42:53;;;;;;;15.07;6.87;;;9.40;99.90;;;;;;5054565;28;20071;-82
2021/10/23 00:45:19;;;;;;;12.13;6.47;;;9.40;99.90;;;;;;5052918;28;20400;-82
2021/10/23 00:47:44;;;;;;;11.27;6.53;;;9.40;99.90;;;;;;5054171;28;20159;-82
2021/10/23 00:50:10;;;;;;;13.87;7.23;;;9.40;99.90;;;;;;5053673;28;20146;-82
2021/10/23 00:52:36;;;;;;;14.60;7.13;;;9.40;99.90;;;;;;5052712;28;20060;-82
2021/10/23 00:55:02;;;;;;;10.03;6.07;;;9.30;99.90;;;;;;5052977;28;20020;-82
2021/10/23 00:57:29;;;;;;;12.47;7.30;;;9.30;99.90;;;;;;5052392;28;20067;-82
2021/10/23 00:59:54;;;;;;;12.17;6.73;;;9.30;99.90;;;;;;5053632;28;20041;-82
2021/10/23 01:02:20;;;;;;;12.47;7.37;;;9.30;99.90;;;;;;5053871;28;20025;-82
2021/10/23 01:04:46;;;;;;;15.90;7.30;;;9.30;99.90;;;;;;5052474;28;20028;-82
2021/10/23 01:07:11;;;;;;;14.47;7.50;;;9.30;99.90;;;;;;5052789;28;20120;-82
2021/10/23 01:09:39;;;;;;;19.17;7.60;;;9.30;99.90;;;;;;5052192;28;20025;-82
2021/10/23 01:12:10;;;;;;;14.70;7.20;;;9.20;99.90;;;;;;5052247;28;20030;-82
2021/10/23 01:14:35;;;;;;;12.77;7.07;;;9.30;99.90;;;;;;5053051;28;20444;-82
2021/10/23 01:17:01;;;;;;;14.77;7.40;;;9.20;99.90;;;;;;5052417;28;20036;-82
2021/10/23 01:19:27;;;;;;;11.83;6.97;;;9.30;99.90;;;;;;5052814;28;20029;-82
2021/10/23 01:21:53;;;;;;;11.90;7.20;;;9.30;99.90;;;;;;5052341;28;20065;-82
2021/10/23 01:24:20;;;;;;;14.17;7.93;;;9.30;99.90;;;;;;5052162;28;20040;-82
2021/10/23 01:26:47;;;;;;;14.03;7.77;;;9.40;99.90;;;;;;5052132;28;20520;-82
2021/10/23 01:29:15;;;;;;;12.80;7.83;;;9.30;99.90;;;;;;5053288;28;20108;-82
2021/10/23 01:31:42;;;;;;;13.13;7.60;;;9.30;99.90;;;;;;5051682;28;20047;-82
2021/10/23 01:34:18;;;;;;;16.87;8.40;;;9.30;99.90;;;;;;5053114;28;20537;-82
2021/10/23 01:36:51;;;;;;;13.37;7.40;;;9.40;99.90;;;;;;5052253;28;20033;-82
2021/10/23 01:39:17;;;;;;;14.40;7.60;;;9.40;99.90;;;;;;5052122;28;20083;-82
2021/10/23 01:41:43;;;;;;;11.87;7.50;;;9.40;99.90;;;;;;5053398;28;20573;-82
2021/10/23 01:44:13;;;;;;;13.60;7.47;;;9.30;99.90;;;;;;5053132;28;20036;-82
2021/10/23 01:46:39;;;;;;;13.65;7.07;;;9.30;99.90;;;;;;5051770;28;20037;-82
2021/10/23 01:49:05;;;;;;;12.17;7.63;;;9.40;99.90;;;;;;5051578;28;20048;-82
2021/10/23 01:51:32;;;;;;;11.90;6.83;;;9.40;99.90;;;;;;5052281;28;20512;-82
2021/10/23 01:54:02;;;;;;;13.40;7.37;;;9.40;99.90;;;;;;5052061;28;20047;-82
2021/10/23 01:56:28;;;;;;;12.83;7.53;;;9.40;99.90;;;;;;5053432;28;20116;-82
2021/10/23 01:58:53;;;;;;;14.13;7.87;;;9.40;99.90;;;;;;5051472;28;20025;-82
2021/10/23 02:01:19;;;;;;;14.47;7.80;;;9.40;99.90;;;;;;5051771;28;20029;-82
2021/10/23 02:03:45;;;;;;;15.67;7.20;;;9.40;99.90;;;;;;5051813;28;20028;-82
2021/10/23 02:06:11;;;;;;;19.70;7.87;;;9.30;99.90;;;;;;5053467;28;20021;-82
2021/10/23 02:08:37;;;;;;;14.60;7.80;;;9.30;99.90;;;;;;5051775;28;20025;-82
2021/10/23 02:11:03;;;;;;;15.10;7.10;;;9.30;99.90;;;;;;5051818;28;20043;-82
2021/10/23 02:13:29;;;;;;;14.77;8.00;;;9.30;99.90;;;;;;5051898;28;20040;-82
2021/10/23 02:15:54;;;;;;;14.97;8.03;;;9.30;99.90;;;;;;5053438;28;20056;-82
2021/10/23 02:18:20;;;;;;;16.07;8.53;;;9.30;99.90;;;;;;5051751;28;20532;-82
2021/10/23 02:20:46;;;;;;;15.33;7.83;;;9.30;99.90;;;;;;5051333;28;20103;-82
2021/10/23 02:23:11;;;;;;;16.13;8.20;;;9.30;99.90;;;;;;5051409;28;20052;-82
2021/10/23 02:25:37;;;;;;;16.10;8.60;;;9.20;99.90;;;;;;5052553;28;20386;-82
2021/10/23 02:28:03;;;;;;;14.27;8.10;;;9.10;99.90;;;;;;5054385;28;20086;-82
2021/10/23 02:30:28;;;;;;;16.30;8.10;;;9.10;99.90;;;;;;5056740;28;20034;-82
2021/10/23 02:32:54;;;;;;;17.47;8.47;;;9.00;99.90;;;;;;5057428;28;20076;-82
2021/10/23 02:35:20;;;;;;;17.63;10.13;;;9.00;99.90;;;;;;5055628;28;20025;-82
2021/10/23 02:37:46;;;;;;;16.67;9.20;;;9.00;99.90;;;;;;5055391;28;20033;-82
2021/10/23 02:40:12;;;;;;;13.80;8.80;;;9.00;99.90;;;;;;5056624;28;20393;-82
2021/10/23 02:42:38;;;;;;;14.30;7.83;;;8.90;99.90;;;;;;5056589;28;20091;-82
2021/10/23 02:45:06;;;;;;;17.00;9.10;;;8.80;99.90;;;;;;5055082;28;20031;-82
2021/10/23 02:47:32;;;;;;;17.90;8.80;;;8.80;99.90;;;;;;5056872;28;20406;-82
2021/10/23 02:49:58;;;;;;;15.87;9.07;;;8.80;99.90;;;;;;5054643;28;20025;-82
2021/10/23 02:52:25;;;;;;;19.07;9.63;;;8.70;99.90;;;;;;5056846;28;20044;-82
2021/10/23 02:54:50;;;;;;;14.50;8.60;;;8.60;99.90;;;;;;5055168;28;20027;-82
2021/10/23 02:57:16;;;;;;;17.53;9.37;;;8.60;99.90;;;;;;5055092;28;20123;-82
2021/10/23 02:59:43;;;;;;;16.33;8.60;;;8.50;99.90;;;;;;5055896;28;20092;-82
2021/10/23 03:02:09;;;;;;;17.37;7.53;;;8.50;99.90;;;;;;5054897;28;20394;-82
2021/10/23 03:04:35;;;;;;;18.87;8.10;;;8.50;99.90;;;;;;5054922;28;20036;-82
2021/10/23 03:07:01;;;;;;;16.10;8.33;;;8.50;99.90;;;;;;5056551;28;20028;-82
2021/10/23 03:09:27;;;;;;;14.70;8.00;;;8.50;99.90;;;;;;5056442;28;20385;-82
2021/10/23 03:11:52;;;;;;;15.80;7.80;;;8.50;99.90;;;;;;5055144;28;20017;-82
2021/10/23 03:14:18;;;;;;;12.43;7.87;;;8.40;99.90;;;;;;5055165;28;20070;-82
2021/10/23 03:16:43;;;;;;;16.60;7.97;;;8.40;99.90;;;;;;5055040;28;20033;-82
2021/10/23 03:19:09;;;;;;;15.70;8.13;;;8.40;99.90;;;;;;5055811;28;20025;-82
2021/10/23 03:21:35;;;;;;;15.93;8.10;;;8.40;99.90;;;;;;5054879;28;20120;-82
2021/10/23 03:24:00;;;;;;;19.17;9.10;;;8.40;99.90;;;;;;5056305;28;20021;-82
2021/10/23 03:26:26;;;;;;;14.43;7.87;;;8.30;99.90;;;;;;5055169;28;20028;-82
2021/10/23 03:28:51;;;;;;;16.50;8.20;;;8.30;99.90;;;;;;5056130;28;20022;-82
2021/10/23 03:31:17;;;;;;;14.60;8.30;;;8.30;99.90;;;;;;5054931;28;20025;-82
2021/10/23 03:33:43;;;;;;;16.53;8.47;;;8.20;99.90;;;;;;5054987;28;20028;-81
2021/10/23 03:36:08;;;;;;;15.47;8.37;;;8.30;99.90;;;;;;5056293;28;20025;-82
2021/10/23 03:38:34;;;;;;;17.43;8.93;;;8.20;99.90;;;;;;5055961;28;20522;-82
2021/10/23 03:41:00;;;;;;;17.67;9.57;;;8.20;99.90;;;;;;5055984;28;20474;-82
2021/10/23 03:43:25;;;;;;;15.03;9.33;;;8.30;99.90;;;;;;5055641;28;20059;-82
2021/10/23 03:45:51;;;;;;;17.00;9.60;;;8.20;99.90;;;;;;5054743;28;20071;-82
2021/10/23 03:48:17;;;;;;;15.10;9.30;;;8.20;99.90;;;;;;5056113;28;20029;-82
2021/10/23 03:50:43;;;;;;;16.63;9.50;;;8.20;99.90;;;;;;5056091;28;20017;-82
2021/10/23 03:53:09;;;;;;;18.27;10.43;;;8.20;99.90;;;;;;5053991;28;20027;-82
2021/10/23 03:55:35;;;;;;;17.70;9.70;;;8.20;99.90;;;;;;5053950;28;20032;-82
2021/10/23 03:58:01;;;;;;;17.70;10.03;;;8.20;99.90;;;;;;5054472;28;20405;-82
2021/10/23 04:00:27;;;;;;;15.53;9.47;;;8.20;99.90;;;;;;5055764;28;20028;-82
2021/10/23 04:02:52;;;;;;;16.20;9.60;;;8.20;99.90;;;;;;5054132;28;20053;-82
2021/10/23 04:05:18;;;;;;;17.60;9.53;;;8.20;99.90;;;;;;5054123;28;20111;-82
2021/10/23 04:07:44;;;;;;;15.23;9.27;;;8.10;99.90;;;;;;5055717;28;20410;-82
2021/10/23 04:10:09;;;;;;;17.87;10.00;;;8.10;99.90;;;;;;5053756;28;20478;-82
2021/10/23 04:12:35;;;;;;;19.87;10.27;;;8.20;99.90;;;;;;5054050;28;20028;-82
2021/10/23 04:15:00;;;;;;;19.30;10.27;;;8.20;99.90;;;;;;5055317;28;20557;-82
2021/10/23 04:17:27;;;;;;;18.70;10.80;;;8.20;99.90;;;;;;5054048;28;20032;-82
2021/10/23 04:19:53;;;;;;;20.03;10.97;;;8.10;99.90;;;;;;5053297;28;20394;-82
2021/10/23 04:22:18;;;;;;;17.90;10.40;;;8.20;99.90;;;;;;5055167;28;20021;-82
2021/10/23 04:24:45;;;;;;;18.90;11.30;;;8.20;99.90;;;;;;5053875;28;20056;-82
2021/10/23 04:27:10;;;;;;;18.67;10.87;;;8.30;99.90;;;;;;5055331;28;20432;-82
2021/10/23 04:29:36;;;;;;;17.00;10.33;;;8.30;99.90;;;;;;5053634;28;20021;-82
2021/10/23 04:32:02;;;;;;;21.20;11.20;;;8.30;99.90;;;;;;5053905;28;20500;-82
2021/10/23 04:34:28;;;;;;;20.70;11.43;;;8.30;99.90;;;;;;5053926;28;20021;-82
2021/10/23 04:36:54;;;;;;;20.80;11.27;;;8.30;99.90;;;;;;5054168;28;20032;-82
2021/10/23 04:39:21;;;;;;;24.17;11.73;;;8.30;99.90;;;;;;5053337;28;20025;-82
2021/10/23 04:41:46;;;;;;;18.70;11.27;;;8.30;99.90;;;;;;5055522;28;20017;-82
2021/10/23 04:44:12;;;;;;;24.00;12.23;;;8.30;99.90;;;;;;5054059;28;20047;-82
2021/10/23 04:46:38;;;;;;;25.10;12.43;;;8.20;99.90;;;;;;5055059;28;20393;-82
2021/10/23 04:49:03;;;;;;;23.33;12.60;;;8.20;99.90;;;;;;5052911;28;20441;-82
2021/10/23 04:51:29;;;;;;;22.17;12.93;;;8.20;99.90;;;;;;5053810;28;20028;-82
2021/10/23 04:53:54;;;;;;;23.70;12.87;;;8.20;99.90;;;;;;5055427;28;20047;-82
2021/10/23 04:56:20;;;;;;;29.20;14.30;;;8.20;99.90;;;;;;5053990;28;20029;-82
2021/10/23 04:58:47;;;;;;;35.00;15.43;;;8.30;99.90;;;;;;5053655;28;20496;-82
2021/10/23 05:01:13;;;;;;;30.77;14.53;;;8.30;99.90;;;;;;5053812;28;20025;-82
2021/10/23 05:03:39;;;;;;;26.20;14.93;;;8.30;99.90;;;;;;5053983;28;20047;-82
2021/10/23 05:06:04;;;;;;;25.63;13.70;;;8.20;99.90;;;;;;5055175;28;20490;-82
2021/10/23 05:08:30;;;;;;;26.90;15.20;;;8.30;99.90;;;;;;5055376;28;20068;-82
2021/10/23 05:10:55;;;;;;;32.37;15.53;;;8.30;99.90;;;;;;5053107;28;20025;-82
2021/10/23 05:13:21;;;;;;;25.90;14.43;;;8.30;99.90;;;;;;5054882;28;20367;-83
2021/10/23 05:15:47;;;;;;;26.13;14.10;;;8.30;99.90;;;;;;5054097;28;20033;-82
2021/10/23 05:18:13;;;;;;;27.87;15.60;;;8.30;99.90;;;;;;5053639;28;20047;-82
2021/10/23 05:20:38;;;;;;;31.07;16.43;;;8.30;99.90;;;;;;5053393;28;20036;-82
2021/10/23 05:23:04;;;;;;;28.83;15.03;;;8.20;99.90;;;;;;5054331;28;20029;-82
2021/10/23 05:25:30;;;;;;;26.57;14.80;;;8.30;99.90;;;;;;5055064;28;20058;-82
2021/10/23 05:27:56;;;;;;;34.77;16.17;;;8.30;99.90;;;;;;5055493;28;20033;-82
2021/10/23 05:30:22;;;;;;;29.20;15.33;;;8.20;99.90;;;;;;5055107;28;20021;-82
2021/10/23 05:32:47;;;;;;;34.37;15.80;;;8.20;99.90;;;;;;5054240;28;20078;-82
2021/10/23 05:35:13;;;;;;;32.47;16.50;;;8.30;99.90;;;;;;5058405;28;20036;-82
2021/10/23 05:37:39;;;;;;;34.47;16.60;;;8.20;99.90;;;;;;5062599;28;20089;-82
2021/10/23 05:40:05;;;;;;;25.97;15.77;;;8.20;99.90;;;;;;5061139;28;20053;-82
2021/10/23 05:42:31;;;;;;;26.97;15.23;;;8.20;99.90;;;;;;5060974;28;20051;-82
2021/10/23 05:44:56;;;;;;;36.93;17.60;;;8.30;99.90;;;;;;5057251;28;20076;-82
2021/10/23 05:47:22;;;;;;;30.03;16.20;;;8.30;99.90;;;;;;5053323;28;20029;-82
2021/10/23 05:49:48;;;;;;;29.90;15.87;;;8.30;99.90;;;;;;5051704;28;20021;-82
2021/10/23 05:52:14;;;;;;;29.87;16.37;;;8.30;99.90;;;;;;5052150;28;20137;-82
2021/10/23 05:54:40;;;;;;;28.80;16.23;;;8.30;99.90;;;;;;5053595;28;20021;-82
2021/10/23 05:57:07;;;;;;;30.23;16.50;;;8.30;99.90;;;;;;5051802;28;20090;-82
2021/10/23 05:59:34;;;;;;;28.77;15.43;;;8.30;99.90;;;;;;5053109;28;20025;-82
2021/10/23 06:02:10;;;;;;;30.97;16.07;;;8.30;99.90;;;;;;5055716;28;20021;-82
2021/10/23 06:04:36;;;;;;;31.43;15.47;;;8.30;99.90;;;;;;5055998;28;20041;-82
2021/10/23 06:07:05;;;;;;;30.10;17.20;;;8.40;99.90;;;;;;5055781;28;20021;-82
2021/10/23 06:09:31;;;;;;;30.73;16.20;;;8.40;99.90;;;;;;5055322;28;20021;-82
2021/10/23 06:12:01;;;;;;;31.60;15.70;;;8.40;99.90;;;;;;5055732;28;20272;-82
2021/10/23 06:14:27;;;;;;;30.83;16.03;;;8.40;99.90;;;;;;5057423;28;20071;-82
2021/10/23 06:16:52;;;;;;;32.87;16.77;;;8.50;99.90;;;;;;5055418;28;20033;-81
2021/10/23 06:19:18;;;;;;;36.07;18.07;;;8.60;99.90;;;;;;5055517;28;20032;-82
2021/10/23 06:21:44;;;;;;;34.83;17.93;;;8.60;99.90;;;;;;5063290;23;20045;-82
2021/10/23 06:24:09;;;;;;;35.87;17.20;;;8.60;99.90;;;;;;5035795;28;20021;-82
2021/10/23 06:26:35;;;;;;;38.37;18.57;;;8.70;99.90;;;;;;5036861;28;20026;-82
2021/10/23 06:29:00;;;;;;;40.80;18.83;;;8.70;99.90;;;;;;5036361;28;20026;-82
2021/10/23 06:31:26;;;;;;;36.90;18.67;;;8.80;99.90;;;;;;5035497;28;20568;-81
2021/10/23 06:33:52;;;;;;;37.40;18.63;;;8.80;99.90;;;;;;5036093;28;20021;-82
2021/10/23 06:36:17;;;;;;;43.47;18.43;;;8.80;99.90;;;;;;5037728;28;20072;-82
2021/10/23 06:38:43;;;;;;;40.77;19.90;;;8.90;99.90;;;;;;5037579;28;20025;-82
2021/10/23 06:41:09;;;;;;;44.00;21.40;;;8.90;99.90;;;;;;5036776;28;20025;-81
2021/10/23 06:43:34;;;;;;;43.73;20.63;;;8.80;99.90;;;;;;5037581;28;20496;-81
2021/10/23 06:46:00;;;;;;;46.63;22.20;;;8.90;99.90;;;;;;5037450;28;20025;-81
2021/10/23 06:48:25;;;;;;;49.27;23.07;;;8.90;99.90;;;;;;5036512;28;20029;-81
2021/10/23 06:50:51;;;;;;;48.07;22.10;;;8.90;99.90;;;;;;5037478;28;20033;-82
2021/10/23 06:53:17;;;;;;;53.80;24.97;;;8.90;99.90;;;;;;5038621;28;20030;-80
2021/10/23 06:55:42;;;;;;;49.67;23.00;;;8.90;99.90;;;;;;5042684;28;20030;-81
2021/10/23 06:58:08;;;;;;;48.50;21.90;;;9.00;99.90;;;;;;5036838;28;20028;-81
2021/10/23 07:00:34;;;;;;;50.20;23.27;;;9.00;99.90;;;;;;5035082;28;20397;-81
2021/10/23 07:02:59;;;;;;;49.57;24.50;;;9.00;99.90;;;;;;5035226;28;20037;-81
2021/10/23 07:05:27;;;;;;;48.40;22.30;;;9.00;99.90;;;;;;5033930;28;20079;-82
2021/10/23 07:07:52;;;;;;;45.10;21.57;;;9.00;99.90;;;;;;5035431;28;20072;-81
2021/10/23 07:10:19;;;;;;;45.80;22.07;;;9.00;99.90;;;;;;5034847;28;20025;-81
2021/10/23 07:12:44;;;;;;;42.90;21.77;;;9.00;99.90;;;;;;5032832;28;20116;-81
2021/10/23 07:15:10;;;;;;;46.43;23.83;;;9.00;99.90;;;;;;5033943;28;20113;-81
2021/10/23 07:17:37;;;;;;;48.60;23.87;;;9.00;99.90;;;;;;5034305;28;20022;-81
2021/10/23 07:20:05;;;;;;;46.70;22.70;;;9.10;99.90;;;;;;5034549;28;20017;-82
2021/10/23 07:22:31;;;;;;;46.67;22.73;;;9.00;99.90;;;;;;5034822;28;20025;-82
2021/10/23 07:24:57;;;;;;;45.93;23.57;;;9.10;99.90;;;;;;5035198;28;20379;-81
2021/10/23 07:27:22;;;;;;;46.07;23.30;;;9.10;99.90;;;;;;5034802;28;20055;-81
2021/10/23 07:29:48;;;;;;;41.77;21.27;;;9.10;99.90;;;;;;5034915;28;20434;-81
2021/10/23 07:32:14;;;;;;;45.63;23.30;;;9.10;99.90;;;;;;5033641;28;20490;-81
2021/10/23 07:34:39;;;;;;;42.83;22.03;;;9.10;99.90;;;;;;5034982;28;20470;-82
2021/10/23 07:37:05;;;;;;;42.47;22.90;;;9.10;99.90;;;;;;5034806;28;20030;-82
2021/10/23 07:39:30;;;;;;;41.50;22.33;;;9.10;99.90;;;;;;5035708;28;20036;-81
2021/10/23 07:41:56;;;;;;;42.13;21.97;;;9.10;99.90;;;;;;5035078;28;20026;-81
2021/10/23 07:44:22;;;;;;;44.63;21.57;;;9.10;99.90;;;;;;5035794;28;20033;-82
2021/10/23 07:46:47;;;;;;;47.57;24.20;;;9.10;99.90;;;;;;5034260;28;20029;-81
2021/10/23 07:49:13;;;;;;;44.70;23.13;;;9.10;99.90;;;;;;5034317;28;20425;-81
2021/10/23 07:51:39;;;;;;;45.10;23.33;;;9.20;99.90;;;;;;5033821;28;20025;-81
2021/10/23 07:54:07;;;;;;;40.97;20.80;;;9.20;99.90;;;;;;5033304;28;20049;-82
2021/10/23 07:56:34;;;;;;;45.45;22.80;;;9.20;99.90;;;;;;5034921;28;20025;-81
2021/10/23 07:59:00;;;;;;;46.30;22.80;;;9.30;99.90;;;;;;5034454;28;20109;-82
2021/10/23 08:01:27;;;;;;;40.70;21.43;;;9.30;99.90;;;;;;5034481;28;20056;-81
2021/10/23 08:03:53;;;;;;;39.30;21.37;;;9.30;99.90;;;;;;5035425;28;20022;-82
2021/10/23 08:06:18;;;;;;;38.70;21.10;;;9.30;99.90;;;;;;5034759;28;20029;-82
2021/10/23 08:08:44;;;;;;;44.20;22.33;;;9.30;99.90;;;;;;5033357;28;20021;-81
2021/10/23 08:11:10;;;;;;;39.77;21.27;;;9.40;99.90;;;;;;5034082;28;20025;-81
2021/10/23 08:13:35;;;;;;;41.53;21.13;;;9.40;99.90;;;;;;5033515;28;20021;-82
2021/10/23 08:16:02;;;;;;;40.27;21.27;;;9.40;99.90;;;;;;5033390;28;20485;-82
2021/10/23 08:18:28;;;;;;;40.87;20.30;;;9.40;99.90;;;;;;5033191;28;20049;-82
2021/10/23 08:20:54;;;;;;;44.17;22.73;;;9.40;99.90;;;;;;5033424;28;20048;-82
2021/10/23 08:23:20;;;;;;;40.87;21.53;;;9.40;99.90;;;;;;5032682;28;20026;-82
2021/10/23 08:25:46;;;;;;;38.83;21.07;;;9.40;99.90;;;;;;5034399;28;20029;-81
2021/10/23 08:28:11;;;;;;;39.37;20.63;;;9.50;99.90;;;;;;5034464;28;20030;-81
2021/10/23 08:30:37;;;;;;;39.37;21.57;;;9.50;99.90;;;;;;5034042;28;20021;-81
2021/10/23 08:33:03;;;;;;;38.93;19.77;;;9.50;99.90;;;;;;5032833;28;20478;-81
2021/10/23 08:35:29;;;;;;;40.83;20.87;;;9.50;99.90;;;;;;5033868;28;20026;-81
2021/10/23 08:37:55;;;;;;;40.73;21.03;;;9.60;99.90;;;;;;5033920;28;20029;-81
2021/10/23 08:40:22;;;;;;;40.23;21.43;;;9.70;99.90;;;;;;5033439;28;20025;-81
2021/10/23 08:42:49;;;;;;;37.50;20.00;;;9.70;99.90;;;;;;5032419;28;20619;-81
2021/10/23 08:45:16;;;;;;;40.77;20.70;;;9.80;99.90;;;;;;5033494;28;20057;-82
2021/10/23 08:47:43;;;;;;;39.43;19.83;;;9.80;99.90;;;;;;5033502;28;20025;-81
2021/10/23 08:50:14;;;;;;;41.23;20.70;;;9.80;99.90;;;;;;5032916;28;20052;-82
2021/10/23 08:52:47;;;;;;;40.00;21.07;;;9.80;99.90;;;;;;5032425;28;20041;-81
2021/10/23 08:55:14;;;;;;;40.83;20.50;;;9.80;99.90;;;;;;5033530;28;20026;-81
2021/10/23 08:57:40;;;;;;;35.53;18.83;;;9.80;99.90;;;;;;5031896;28;20032;-81
2021/10/23 09:00:07;;;;;;;34.03;18.90;;;9.80;99.90;;;;;;5032945;28;20478;-81
2021/10/23 09:02:33;;;;;;;38.20;19.83;;;9.80;99.90;;;;;;5033280;28;20482;-81
2021/10/23 09:04:59;;;;;;;36.43;18.83;;;9.80;99.90;;;;;;5032210;28;20073;-81
2021/10/23 09:07:30;;;;;;;40.40;20.63;;;9.70;99.90;;;;;;5033155;28;20036;-81
2021/10/23 09:10:03;;;;;;;36.90;20.50;;;9.80;99.90;;;;;;5031328;28;20449;-82
2021/10/23 09:12:34;;;;;;;42.60;20.93;;;9.80;99.90;;;;;;5032069;28;20026;-80
2021/10/23 09:15:03;;;;;;;39.27;20.47;;;9.90;99.90;;;;;;5032263;28;20478;-81
2021/10/23 09:17:29;;;;;;;38.53;20.88;;;10.00;99.90;;;;;;5033667;28;20032;-81
2021/10/23 09:19:58;;;;;;;35.40;19.47;;;10.00;99.90;;;;;;5032578;28;20036;-82
2021/10/23 09:22:32;;;;;;;40.92;20.80;;;10.00;99.90;;;;;;5033556;28;20033;-82
2021/10/23 09:25:11;;;;;;;38.93;21.00;;;10.10;99.90;;;;;;5031773;28;20056;-82
2021/10/23 09:27:55;;;;;;;;;;;10.10;99.90;;;;;;5033692;28;20033;-81
2021/10/23 09:30:33;;;;;;;51.03;22.53;;;10.20;99.90;;;;;;5033203;28;19905;-82
2021/10/23 09:33:04;;;;;;;38.83;21.73;;;10.30;99.90;;;;;;5033740;28;20026;-82
2021/10/23 09:35:30;;;;;;;41.63;22.30;;;10.30;99.90;;;;;;5036376;28;20022;-82
2021/10/23 09:37:58;;;;;;;43.27;23.50;;;10.30;99.90;;;;;;5039306;28;20029;-81
2021/10/23 09:40:26;;;;;;;43.30;22.53;;;10.40;99.90;;;;;;5038605;28;20018;-82
2021/10/23 09:43:09;;;;;;;43.50;22.47;;;10.30;99.90;;;;;;5038620;28;20022;-82
2021/10/23 09:45:36;;;;;;;52.00;23.70;;;10.40;99.90;;;;;;5038703;28;20052;-82
2021/10/23 09:48:10;;;;;;;46.63;23.30;;;10.40;99.90;;;;;;5040029;28;20017;-81
2021/10/23 09:50:36;;;;;;;48.30;23.80;;;10.40;99.90;;;;;;5038470;28;20018;-82
2021/10/23 09:53:07;;;;;;;49.13;24.03;;;10.50;99.90;;;;;;5040119;28;20028;-82
2021/10/23 09:55:54;;;;;;;48.83;24.03;;;10.50;99.90;;;;;;5039375;28;20036;-82
2021/10/23 09:58:24;;;;;;;45.13;23.83;;;10.60;99.90;;;;;;5039998;28;20055;-82
2021/10/23 10:00:54;;;;;;;51.00;25.73;;;10.60;99.90;;;;;;5038400;28;20037;-82
2021/10/23 10:03:21;;;;;;;46.57;25.23;;;10.60;99.90;;;;;;5040209;28;20035;-82
2021/10/23 10:06:00;;;;;;;54.60;25.30;;;10.60;99.90;;;;;;5038568;28;20397;-82
2021/10/23 10:08:29;;;;;;;50.95;23.52;;;10.60;99.90;;;;;;5038879;28;20028;-82
2021/10/23 10:10:56;;;;;;;49.15;25.27;;;10.60;99.90;;;;;;5040109;28;20025;-81
2021/10/23 10:13:26;;;;;;;56.07;25.03;;;10.60;99.90;;;;;;5039266;28;20022;-81
2021/10/23 10:15:54;;;;;;;56.97;27.80;;;10.60;99.90;;;;;;5040613;28;20411;-81
2021/10/23 10:18:23;;;;;;;43.67;23.92;;;10.70;99.90;;;;;;5040609;28;20028;-82
2021/10/23 10:20:54;;;;;;;50.67;26.03;;;10.60;99.90;;;;;;5038468;28;20072;-82
2021/10/23 10:23:35;;;;;;;50.23;25.87;;;10.70;99.90;;;;;;5040146;28;20029;-81
2021/10/23 10:26:25;;;;;;;56.30;27.43;;;10.70;99.90;;;;;;5040288;28;20025;-82
2021/10/23 10:29:06;;;;;;;53.37;27.40;;;10.70;99.90;;;;;;5040528;28;20413;-82
2021/10/23 10:31:57;;;;;;;53.90;26.70;;;10.80;99.90;;;;;;5040416;28;20018;-81
2021/10/23 10:42:51;;;;;;;67.97;32.57;;;10.90;99.90;;;;;;5039458;28;20053;-82
2021/10/23 10:45:25;;;;;;;72.53;35.60;;;10.90;99.90;;;;;;5039360;28;20025;-81
2021/10/23 10:48:12;;;;;;;76.97;37.27;;;10.90;99.90;;;;;;5037371;28;20036;-82
2021/10/23 10:50:39;;;;;;;81.27;39.07;;;11.00;99.90;;;;;;5037064;28;20109;-82
2021/10/23 10:53:30;;;;;;;75.77;38.33;;;11.00;99.90;;;;;;5036187;28;20091;-81
2021/10/23 10:55:58;;;;;;;73.43;36.60;;;11.00;99.90;;;;;;5037738;28;20029;-82
2021/10/23 10:58:57;;;;;;;79.13;39.92;;;11.00;99.90;;;;;;5036392;28;20394;-82
2021/10/23 11:01:28;;;;;;;74.90;39.00;;;11.10;99.90;;;;;;5028689;28;20424;-82
2021/10/23 11:04:02;;;;;;;81.07;37.77;;;11.10;99.90;;;;;;5038348;28;20017;-82
2021/10/23 11:06:34;;;;;;;87.53;42.17;;;11.10;99.90;;;;;;5038577;28;20017;-82
2021/10/23 11:09:11;;;;;;;90.13;42.80;;;11.20;99.90;;;;;;5037956;28;20028;-82
2021/10/23 11:11:52;;;;;;;87.63;42.43;;;11.20;99.90;;;;;;5038223;28;20022;-82
2021/10/23 11:14:35;;;;;;;83.70;40.57;;;11.20;99.90;;;;;;5039013;28;20071;-82
2021/10/23 11:17:01;;;;;;;84.63;40.37;;;11.20;99.90;;;;;;5038675;28;20021;-82
2021/10/23 11:19:28;;;;;;;82.30;40.37;;;11.30;99.90;;;;;;5036480;28;20119;-82
2021/10/23 11:22:09;;;;;;;85.80;39.27;;;11.20;99.90;;;;;;5038128;28;20036;-82
2021/10/23 11:24:39;;;;;;;73.77;36.87;;;11.30;99.90;;;;;;5039484;28;20215;-83
2021/10/23 11:27:05;;;;;;;77.33;37.43;;;11.40;99.90;;;;;;5039115;28;20429;-82
2021/10/23 11:29:31;;;;;;;69.80;34.47;;;11.40;99.90;;;;;;5039395;28;20022;-82
2021/10/23 11:32:00;;;;;;;65.50;35.07;;;11.30;99.90;;;;;;5043476;28;20030;-82
2021/10/23 11:34:30;;;;;;;62.87;32.47;;;11.40;99.90;;;;;;5046473;28;20018;-82
2021/10/23 11:37:07;;;;;;;52.13;28.70;;;11.40;99.90;;;;;;5048410;28;20021;-82
2021/10/23 11:39:37;;;;;;;57.90;30.47;;;11.50;99.90;;;;;;5035549;28;20033;-82
2021/10/23 11:42:25;;;;;;;59.23;28.77;;;11.50;99.90;;;;;;5036132;28;20390;-82
2021/10/23 11:44:59;;;;;;;51.30;26.35;;;11.50;99.90;;;;;;5036652;28;20026;-82
2021/10/23 11:47:29;;;;;;;52.03;24.93;;;11.50;99.90;;;;;;5036974;28;20030;-82
2021/10/23 11:50:24;;;;;;;43.97;24.30;;;11.50;99.90;;;;;;5034819;28;20645;-82
2021/10/23 11:53:02;;;;;;;38.43;21.00;;;11.50;99.90;;;;;;5035630;28;20053;-82
2021/10/23 11:55:36;;;;;;;37.20;20.83;;;11.60;99.90;;;;;;5035282;28;20025;-82
2021/10/23 11:58:07;;;;;;;37.00;21.33;;;11.60;99.90;;;;;;5036572;28;20249;-82
2021/10/23 12:00:34;;;;;;;34.40;20.57;;;11.60;99.90;;;;;;5036264;28;20017;-82
2021/10/23 12:03:03;;;;;;;34.17;19.17;;;11.60;99.90;;;;;;5036974;28;20013;-82
2021/10/23 12:05:36;;;;;;;33.87;18.50;;;11.60;99.90;;;;;;5035818;28;20386;-82
2021/10/23 12:08:12;;;;;;;27.47;17.40;;;11.70;99.90;;;;;;5037632;28;20329;-82
2021/10/23 12:11:07;;;;;;;32.13;16.70;;;11.70;99.90;;;;;;5036726;28;20020;-82
2021/10/23 12:14:06;;;;;;;27.23;17.50;;;11.70;99.90;;;;;;5036921;28;20469;-82
2021/10/23 12:16:46;;;;;;;26.67;16.05;;;11.70;99.90;;;;;;5033960;28;20025;-82
2021/10/23 12:19:16;;;;;;;23.90;15.00;;;11.80;99.90;;;;;;5034319;28;20022;-81
2021/10/23 12:21:49;;;;;;;23.90;14.53;;;11.80;99.90;;;;;;5062515;23;20053;-82
2021/10/23 12:24:28;;;;;;;23.27;13.60;;;11.80;99.90;;;;;;5059684;28;20389;-84
2021/10/23 12:27:08;;;;;;;22.88;13.63;;;11.80;99.90;;;;;;5059338;28;20098;-83
2021/10/23 12:29:40;;;;;;;21.13;12.47;;;11.80;99.90;;;;;;5059186;28;20021;-82
2021/10/23 12:32:10;;;;;;;20.23;11.37;;;11.90;99.90;;;;;;5059412;28;20393;-82
2021/10/23 12:34:51;;;;;;;19.57;9.97;;;11.90;99.90;;;;;;5059473;28;20013;-84
2021/10/23 12:37:31;;;;;;;14.57;8.90;;;12.00;99.90;;;;;;5057653;28;20541;-82
2021/10/23 12:40:05;;;;;;;16.77;9.10;;;12.00;99.90;;;;;;5056612;28;20071;-83
2021/10/23 12:42:35;;;;;;;21.20;9.68;;;12.00;99.90;;;;;;5057717;28;20123;-84
2021/10/23 12:45:01;;;;;;;15.50;7.68;;;12.00;99.90;;;;;;5058646;28;20033;-84
2021/10/23 12:47:27;;;;;;;16.38;8.13;;;12.10;99.90;;;;;;5057519;28;20120;-84
2021/10/23 12:49:53;;;;;;;13.93;6.93;;;12.10;99.90;;;;;;5056041;28;20063;-83
2021/10/23 12:52:18;;;;;;;11.68;5.70;;;12.10;99.90;;;;;;5056826;28;20025;-83